Time;durP1;ratioP1;P1;durP2;ratioP2;P2;SDS_P1;SDS_P2;PMS_P1;PMS_P2;Temp;Humidity;BMP_temperature;BMP_pressure;BME280_temperature;BME280_humidity;BME280_pressure;Samples;Min_cycle;Max_cycle;Signal;HPM_P1;HPM_P2
2021/12/24 00:00:12;;;;;;;93.87;55.80;;;;;;;6.37;100.00;100364.19;5232823;28;20064;-69
2021/12/24 00:02:43;;;;;;;95.78;55.78;;;;;;;6.39;100.00;100367.63;5233230;28;20515;-72
2021/12/24 00:05:15;;;;;;;92.07;53.17;;;;;;;6.39;100.00;100365.94;5233072;28;20037;-71
2021/12/24 00:07:46;;;;;;;90.83;55.17;;;;;;;6.41;100.00;100360.75;5232833;28;20045;-71
2021/12/24 00:10:18;;;;;;;81.37;51.20;;;;;;;6.43;100.00;100369.38;5232439;28;20042;-71
2021/12/24 00:12:58;;;;;;;81.70;50.60;;;;;;;6.41;100.00;100352.97;5244699;28;20044;-71
2021/12/24 00:18:16;;;;;;;77.15;48.95;;;;;;;6.42;100.00;100361.59;5276848;28;20044;-71
2021/12/24 00:37:33;;;;;;;75.65;50.00;;;;;;;6.53;100.00;100345.16;5255110;28;20029;-71
2021/12/24 00:40:18;;;;;;;76.83;51.70;;;;;;;6.54;100.00;100346.03;5255168;28;20527;-70
2021/12/24 00:42:53;;;;;;;74.68;49.97;;;;;;;6.55;100.00;100342.56;5255620;28;20055;-70
2021/12/24 00:45:28;;;;;;;73.95;50.63;;;;;;;6.57;100.00;100333.94;5255298;28;20047;-71
2021/12/24 00:48:01;;;;;;;76.03;51.72;;;;;;;6.60;100.00;100330.50;5255476;28;20424;-70
2021/12/24 00:50:54;;;;;;;73.47;49.13;;;;;;;6.60;100.00;100334.78;5255144;28;20025;-71
2021/12/24 00:56:09;;;;;;;71.18;47.92;;;;;;;6.62;100.00;100333.94;5255242;28;20057;-70
2021/12/24 00:58:41;;;;;;;67.53;48.42;;;;;;;6.67;100.00;100327.00;5255288;28;20083;-71
2021/12/24 01:01:14;;;;;;;66.28;47.35;;;;;;;6.68;100.00;100328.72;5255069;28;20632;-71
2021/12/24 01:03:46;;;;;;;67.40;46.13;;;;;;;6.70;100.00;100321.81;5255216;28;20045;-71
2021/12/24 01:06:17;;;;;;;72.23;51.63;;;;;;;6.70;100.00;100326.13;5254940;28;20036;-72
2021/12/24 01:08:49;;;;;;;76.00;49.63;;;;;;;6.74;100.00;100327.81;5254665;28;20125;-72
2021/12/24 01:11:20;;;;;;;73.20;50.67;;;;;;;6.75;100.00;100324.38;5255013;28;20021;-69
2021/12/24 01:13:51;;;;;;;78.30;51.90;;;;;;;6.74;100.00;100327.81;5255107;28;20362;-71
2021/12/24 01:16:40;;;;;;;78.97;53.43;;;;;;;6.74;100.00;100314.88;5254337;28;20043;-70
2021/12/24 01:19:18;;;;;;;79.80;54.22;;;;;;;6.81;100.00;100320.88;5254726;28;20029;-70
2021/12/24 01:24:50;;;;;;;89.43;60.28;;;;;;;6.88;100.00;100317.41;5255409;28;20496;-71
2021/12/24 01:38:48;;;;;;;110.38;64.93;;;;;;;6.99;100.00;100317.31;5255424;28;20408;-70
2021/12/24 01:42:40;;;;;;;112.68;67.25;;;;;;;7.02;100.00;100320.78;5254756;28;20065;-71
2021/12/24 01:44:11;;;;;;;118.70;70.20;;;;;;;7.05;100.00;100322.47;5254735;28;20124;-70
2021/12/24 01:46:42;;;;;;;127.60;78.40;;;;;;;7.16;100.00;100310.31;5254642;28;20105;-71
2021/12/24 01:49:14;;;;;;;124.20;72.93;;;;;;;7.16;100.00;100310.31;5254699;28;20036;-71
2021/12/24 01:51:45;;;;;;;125.23;75.20;;;;;;;7.17;100.00;100319.81;5258880;28;20643;-69
2021/12/24 01:54:17;;;;;;;125.97;73.27;;;;;;;7.17;100.00;100311.19;5258618;28;20137;-73
2021/12/24 01:56:49;;;;;;;126.38;74.05;;;;;;;7.18;100.00;100318.97;5258948;28;20079;-70
2021/12/24 01:59:20;;;;;;;129.97;76.10;;;;;;;7.22;100.00;100315.47;5258729;28;20492;-72
2021/12/24 02:01:52;;;;;;;121.43;76.50;;;;;;;7.26;100.00;100317.19;5258406;28;20063;-73
2021/12/24 02:04:23;;;;;;;124.17;71.53;;;;;;;7.29;100.00;100308.50;5258593;28;20492;-72
2021/12/24 02:06:55;;;;;;;121.20;71.17;;;;;;;7.27;100.00;100313.69;5258678;28;20060;-72
2021/12/24 02:09:26;;;;;;;118.07;70.73;;;;;;;7.28;100.00;100314.56;5258460;28;20033;-71
2021/12/24 02:11:59;;;;;;;114.57;70.67;;;;;;;7.25;100.00;100315.44;5273953;28;20151;-72
2021/12/24 02:14:35;;;;;;;113.55;68.72;;;;;;;7.26;100.00;100308.53;5258188;28;20044;-71
2021/12/24 02:30:58;;;;;;;116.90;72.20;;;;;;;7.35;100.00;100302.44;5258013;28;20449;-70
2021/12/24 02:33:29;;;;;;;112.27;68.77;;;;;;;7.38;100.00;100307.59;5257993;28;20052;-70
2021/12/24 02:36:01;;;;;;;110.47;69.80;;;;;;;7.40;100.00;100309.28;5257898;28;20214;-68
2021/12/24 02:38:32;;;;;;;115.60;71.57;;;;;;;7.41;100.00;100308.44;5257695;28;20021;-70
2021/12/24 02:41:05;;;;;;;125.10;77.57;;;;;;;7.49;100.00;100304.03;5257878;28;20040;-70
2021/12/24 02:43:37;;;;;;;;;;;;;;;7.52;100.00;100299.69;5258393;28;20025;-70
2021/12/24 02:46:27;;;;;;;128.38;77.75;;;;;;;7.54;100.00;100296.22;5257370;28;19916;-70
2021/12/24 02:49:18;;;;;;;138.57;79.63;;;;;;;7.54;100.00;100301.41;5257790;28;20036;-71
2021/12/24 02:54:39;;;;;;;134.70;79.32;;;;;;;7.58;100.00;100292.75;5257860;28;20033;-72
2021/12/24 02:57:15;;;;;;;136.00;81.57;;;;;;;7.57;100.00;100291.00;5257587;28;20386;-72
2021/12/24 02:59:58;;;;;;;144.38;84.63;;;;;;;7.59;100.00;100296.19;5257438;28;20043;-73
2021/12/24 03:02:32;;;;;;;137.10;83.15;;;;;;;7.58;100.00;100291.88;5257152;28;20199;-71
2021/12/24 03:05:05;;;;;;;151.43;93.95;;;;;;;7.63;100.00;100295.28;5257287;28;20385;-71
2021/12/24 03:07:36;;;;;;;147.52;91.38;;;;;;;7.64;100.00;100292.66;5257399;28;20055;-72
2021/12/24 03:10:16;;;;;;;155.17;87.90;;;;;;;7.60;100.00;100303.97;5257455;28;20033;-71
2021/12/24 03:12:51;;;;;;;146.38;84.60;;;;;;;7.63;100.00;100296.16;5257054;28;20060;-69
2021/12/24 03:15:24;;;;;;;148.85;86.22;;;;;;;7.61;100.00;100291.84;5256935;28;20024;-71
2021/12/24 03:17:59;;;;;;;153.95;85.68;;;;;;;7.63;100.00;100293.56;5257114;28;20079;-71
2021/12/24 03:20:33;;;;;;;157.25;86.82;;;;;;;7.59;100.00;100291.84;5257258;28;20067;-71
2021/12/24 03:23:21;;;;;;;150.50;87.97;;;;;;;7.60;100.00;100293.59;5257087;28;20056;-72
2021/12/24 03:25:52;;;;;;;148.98;85.57;;;;;;;7.62;100.00;100299.59;5256842;28;20087;-71
2021/12/24 03:28:24;;;;;;;159.77;87.60;;;;;;;7.64;100.00;100295.25;5256524;28;20455;-71
2021/12/24 03:30:55;;;;;;;149.97;86.43;;;;;;;7.66;100.00;100308.22;5257155;28;20114;-70
2021/12/24 03:33:27;;;;;;;144.80;85.23;;;;;;;7.67;100.00;100310.81;5256930;28;20025;-71
2021/12/24 03:35:58;;;;;;;156.80;87.47;;;;;;;7.69;100.00;100309.94;5256994;28;20025;-71
2021/12/24 03:38:30;;;;;;;150.60;91.10;;;;;;;7.72;100.00;100310.75;5256743;28;20465;-73
2021/12/24 03:41:01;;;;;;;150.30;84.30;;;;;;;7.71;100.00;100300.41;5256981;28;20389;-71
2021/12/24 03:43:33;;;;;;;140.47;86.93;;;;;;;7.70;100.00;100311.66;5256505;28;20083;-71
2021/12/24 03:46:09;;;;;;;143.33;82.00;;;;;;;7.69;100.00;100310.78;5256853;28;20056;-71
2021/12/24 03:48:59;;;;;;;140.68;81.07;;;;;;;7.70;100.00;100315.13;5256415;28;20044;-73
2021/12/24 03:56:52;;;;;;;128.82;79.40;;;;;;;7.74;100.00;100321.13;5256572;28;20041;-71
2021/12/24 03:59:24;;;;;;;128.03;77.07;;;;;;;7.71;100.00;100309.06;5256087;28;20037;-70
2021/12/24 04:01:55;;;;;;;128.03;72.00;;;;;;;7.71;100.00;100313.38;5256121;28;20017;-71
2021/12/24 04:04:26;;;;;;;126.13;72.67;;;;;;;7.72;100.00;100317.69;5256152;28;20032;-71
2021/12/24 04:06:58;;;;;;;123.87;73.53;;;;;;;7.76;100.00;100314.19;5288605;28;20459;-71
2021/12/24 04:09:30;;;;;;;114.57;66.73;;;;;;;7.80;100.00;100310.69;5256158;28;20051;-71
2021/12/24 04:12:03;;;;;;;108.60;63.88;;;;;;;7.80;100.00;100315.91;5254925;28;20017;-70
2021/12/24 04:14:34;;;;;;;100.75;60.90;;;;;;;7.78;100.00;100315.06;5255841;28;20033;-72
2021/12/24 04:17:07;;;;;;;93.90;59.47;;;;;;;7.76;100.00;100311.59;5256120;28;20033;-71
2021/12/24 04:25:25;;;;;;;92.63;54.90;;;;;;;7.75;100.00;100309.88;5211878;28;20038;-73
2021/12/24 04:27:58;;;;;;;83.10;50.97;;;;;;;7.73;100.00;100315.09;5211640;28;20038;-73
2021/12/24 04:30:39;;;;;;;75.85;47.25;;;;;;;7.70;100.00;100306.47;5212052;28;20156;-72
2021/12/24 04:33:20;;;;;;;70.68;44.25;;;;;;;7.65;100.00;100309.97;5196453;28;20041;-71
2021/12/24 04:53:11;;;;;;;43.35;28.83;;;;;;;7.82;100.00;100311.53;5151048;29;20035;-70
2021/12/24 05:01:36;;;;;;;46.47;28.63;;;;;;;7.79;100.00;100307.25;5191217;28;20143;-72
2021/12/24 05:04:10;;;;;;;50.20;30.55;;;;;;;7.81;100.00;100308.09;5174385;28;20514;-72
2021/12/24 05:06:51;;;;;;;41.28;27.92;;;;;;;7.83;100.00;100326.25;5190769;28;20386;-71
2021/12/24 05:09:25;;;;;;;51.72;28.58;;;;;;;7.81;100.00;100312.44;5190526;28;20478;-71
2021/12/24 05:11:56;;;;;;;40.55;26.48;;;;;;;7.79;100.00;100312.44;5191131;28;20426;-70
2021/12/24 05:14:31;;;;;;;47.50;26.97;;;;;;;7.78;100.00;100315.06;5190975;28;20041;-72
2021/12/24 05:22:42;;;;;;;41.75;29.02;;;;;;;7.80;100.00;100313.31;5255312;28;20740;-71
2021/12/24 05:25:13;;;;;;;47.27;26.53;;;;;;;7.73;100.00;100325.47;5254822;28;20128;-71
2021/12/24 05:27:45;;;;;;;38.73;25.20;;;;;;;7.73;100.00;100328.06;5254368;28;20663;-71
2021/12/24 05:30:16;;;;;;;41.43;26.87;;;;;;;7.73;100.00;100328.06;5254522;28;20060;-73
2021/12/24 05:32:47;;;;;;;44.00;24.80;;;;;;;7.74;100.00;100319.38;5254777;28;20383;-72
2021/12/24 05:35:19;;;;;;;39.73;24.57;;;;;;;7.74;100.00;100327.16;5254717;28;20078;-71
2021/12/24 05:37:50;;;;;;;43.33;24.93;;;;;;;7.74;100.00;100324.56;5254903;28;20074;-71
2021/12/24 05:40:22;;;;;;;42.50;24.27;;;;;;;7.71;100.00;100332.41;5253157;28;20017;-71
2021/12/24 05:42:53;;;;;;;40.90;24.90;;;;;;;7.69;100.00;100320.31;5253291;28;20118;-71
2021/12/24 05:45:25;;;;;;;43.03;24.37;;;;;;;7.66;100.00;100326.38;5254831;28;20036;-71
2021/12/24 05:47:56;;;;;;;42.50;22.07;;;;;;;7.67;100.00;100330.69;5254499;28;20102;-71
2021/12/24 05:50:28;;;;;;;50.07;24.20;;;;;;;7.70;100.00;100340.22;5254317;28;20037;-70
2021/12/24 05:52:59;;;;;;;42.10;21.50;;;;;;;7.69;100.00;100339.31;5254426;28;20024;-72
2021/12/24 05:55:30;;;;;;;44.13;22.13;;;;;;;7.72;100.00;100328.06;5254736;28;20021;-72
2021/12/24 05:58:07;;;;;;;33.13;19.43;;;;;;;7.67;100.00;100328.97;5254877;28;20025;-71
2021/12/24 06:00:40;;;;;;;40.30;19.63;;;;;;;7.65;100.00;100324.69;5254368;28;20071;-70
2021/12/24 06:03:11;;;;;;;39.95;19.73;;;;;;;7.67;100.00;100338.50;5254567;28;20025;-70
2021/12/24 06:05:43;;;;;;;37.63;19.10;;;;;;;7.69;100.00;100341.06;5254410;28;20094;-71
2021/12/24 06:08:15;;;;;;;34.67;20.17;;;;;;;7.65;100.00;100332.47;5254482;28;20036;-70
2021/12/24 06:10:46;;;;;;;42.60;19.53;;;;;;;7.65;100.00;100335.91;5254266;28;20033;-72
2021/12/24 06:13:17;;;;;;;35.57;18.30;;;;;;;7.66;100.00;100344.53;5254705;28;20083;-71
2021/12/24 06:15:49;;;;;;;35.67;18.63;;;;;;;7.65;100.00;100332.47;5254256;28;20443;-70
2021/12/24 06:21:00;;;;;;;34.67;19.40;;;;;;;7.63;100.00;100332.47;5254159;28;20060;-70
2021/12/24 06:23:33;;;;;;;35.40;18.48;;;;;;;7.65;100.00;100335.91;5253981;28;20151;-71
2021/12/24 06:26:06;;;;;;;31.95;18.63;;;;;;;7.65;100.00;100346.28;5254184;28;20108;-71
2021/12/24 06:28:37;;;;;;;33.13;18.15;;;;;;;7.62;100.00;100341.13;5253036;28;20500;-71
2021/12/24 06:31:09;;;;;;;38.40;16.57;;;;;;;7.64;100.00;100336.75;5254596;28;20122;-71
2021/12/24 06:33:40;;;;;;;31.23;16.57;;;;;;;7.65;100.00;100335.06;5254223;28;20040;-71
2021/12/24 06:36:12;;;;;;;29.17;15.73;;;;;;;7.71;100.00;100328.94;5255853;28;20021;-73
2021/12/24 06:38:43;;;;;;;31.70;17.63;;;;;;;7.72;100.00;100333.25;5257922;28;20063;-71
2021/12/24 06:41:15;;;;;;;29.90;16.60;;;;;;;7.70;100.00;100333.28;5257958;28;20381;-72
2021/12/24 06:43:46;;;;;;;36.37;15.37;;;;;;;7.71;100.00;100335.00;5256677;28;20558;-70
2021/12/24 06:46:17;;;;;;;37.97;15.97;;;;;;;7.73;100.00;100332.38;5257749;28;20033;-70
2021/12/24 06:48:55;;;;;;;34.27;16.40;;;;;;;7.71;100.00;100345.38;5256614;28;20028;-70
2021/12/24 06:51:27;;;;;;;25.05;15.52;;;;;;;7.75;100.00;100346.22;5257489;28;20037;-71
2021/12/24 06:53:58;;;;;;;27.73;14.43;;;;;;;7.73;100.00;100342.75;5257649;28;20377;-71
2021/12/24 06:56:30;;;;;;;40.17;16.03;;;;;;;7.72;100.00;100341.91;5258231;28;20033;-70
2021/12/24 06:59:01;;;;;;;28.73;15.60;;;;;;;7.72;100.00;100344.50;5258484;28;20069;-72
2021/12/24 07:01:33;;;;;;;31.40;15.30;;;;;;;7.71;100.00;100340.19;5257445;28;20037;-71
2021/12/24 07:04:04;;;;;;;33.67;17.13;;;;;;;7.73;100.00;100332.38;5257699;28;20464;-72
2021/12/24 07:06:39;;;;;;;31.70;16.43;;;;;;;7.73;100.00;100346.22;5256974;28;20041;-72
2021/12/24 07:09:10;;;;;;;35.83;18.98;;;;;;;7.74;100.00;100340.16;5257637;28;20144;-70
2021/12/24 07:11:42;;;;;;;37.63;21.10;;;;;;;7.74;100.00;100337.56;5257315;28;20107;-71
2021/12/24 07:14:14;;;;;;;40.30;19.20;;;;;;;7.71;100.00;100323.75;5257074;28;20013;-71
2021/12/24 07:16:45;;;;;;;32.57;19.43;;;;;;;7.73;100.00;100322.88;5257289;28;20531;-71
2021/12/24 07:19:17;;;;;;;36.80;19.87;;;;;;;7.72;100.00;100328.06;5256994;28;20024;-71
2021/12/24 07:21:48;;;;;;;35.57;18.70;;;;;;;7.75;100.00;100328.06;5256872;28;20060;-71
2021/12/24 07:24:19;;;;;;;30.73;18.67;;;;;;;7.75;100.00;100330.66;5257041;28;20033;-73
2021/12/24 07:26:51;;;;;;;33.17;18.83;;;;;;;7.75;100.00;100330.66;5257185;28;20029;-71
2021/12/24 07:29:22;;;;;;;34.50;19.13;;;;;;;7.76;100.00;100334.94;5256905;28;20481;-70
2021/12/24 07:31:54;;;;;;;33.90;20.40;;;;;;;7.70;100.00;100342.81;5256800;28;20060;-71
2021/12/24 07:34:25;;;;;;;37.17;20.87;;;;;;;7.66;100.00;100340.22;5256734;28;20461;-70
2021/12/24 07:36:57;;;;;;;36.47;22.97;;;;;;;7.64;100.00;100326.38;5256654;28;20549;-70
2021/12/24 07:39:28;;;;;;;42.67;23.20;;;;;;;7.64;100.00;100333.31;5256784;28;20033;-70
2021/12/24 07:42:00;;;;;;;40.20;23.33;;;;;;;7.62;100.00;100342.84;5256613;28;20032;-71
2021/12/24 07:44:34;;;;;;;41.17;24.87;;;;;;;7.64;100.00;100349.72;5256400;28;20382;-70
2021/12/24 07:47:14;;;;;;;41.35;22.67;;;;;;;7.64;100.00;100349.72;5256553;28;20036;-72
2021/12/24 07:49:48;;;;;;;40.10;24.25;;;;;;;7.64;100.00;100349.72;5256186;28;20084;-72
2021/12/24 07:52:20;;;;;;;43.38;21.98;;;;;;;7.64;100.00;100354.94;5275204;28;20412;-72
2021/12/24 07:54:54;;;;;;;41.78;23.50;;;;;;;7.66;100.00;100344.53;5276110;28;20031;-72
2021/12/24 07:57:25;;;;;;;44.38;23.02;;;;;;;7.65;100.00;100340.25;5275985;28;20506;-72
2021/12/24 07:59:58;;;;;;;34.17;20.40;;;;;;;7.66;100.00;100340.22;5275067;28;20131;-73
2021/12/24 08:02:29;;;;;;;44.97;20.75;;;;;;;7.62;100.00;100342.84;5275720;28;20068;-72
2021/12/24 08:05:01;;;;;;;41.53;24.30;;;;;;;7.58;100.00;100341.16;5275356;28;20127;-72
2021/12/24 08:07:32;;;;;;;40.73;22.20;;;;;;;7.54;100.00;100336.88;5275093;28;20770;-72
2021/12/24 08:10:04;;;;;;;43.33;22.73;;;;;;;7.46;100.00;100327.41;5273754;28;20040;-73
2021/12/24 08:12:36;;;;;;;34.80;21.03;;;;;;;7.42;100.00;100332.63;5273885;28;20029;-72
2021/12/24 08:15:08;;;;;;;39.93;21.77;;;;;;;7.40;100.00;100335.22;5276065;28;20313;-72
2021/12/24 08:17:40;;;;;;;47.42;21.67;;;;;;;7.38;100.00;100329.19;5274553;28;20472;-72
2021/12/24 08:20:13;;;;;;;41.80;23.17;;;;;;;7.35;100.00;100338.72;5275800;28;20386;-73
2021/12/24 08:22:45;;;;;;;40.00;22.05;;;;;;;7.32;100.00;100341.34;5276442;28;20128;-73
2021/12/24 08:25:17;;;;;;;43.67;21.00;;;;;;;7.32;100.00;100342.19;5276629;28;20025;-73
2021/12/24 08:27:49;;;;;;;40.40;21.27;;;;;;;7.39;100.00;100345.59;5276133;28;20036;-71
2021/12/24 08:30:20;;;;;;;36.03;20.10;;;;;;;7.41;100.00;100349.06;5276273;28;20060;-72
2021/12/24 08:32:52;;;;;;;44.53;20.07;;;;;;;7.46;100.00;100349.88;5276072;28;20139;-71
2021/12/24 08:35:24;;;;;;;36.43;20.00;;;;;;;7.45;100.00;100338.66;5276518;28;20028;-71
2021/12/24 08:37:56;;;;;;;45.88;20.85;;;;;;;7.51;100.00;100332.56;5276534;28;20846;-72
2021/12/24 08:40:27;;;;;;;35.37;19.63;;;;;;;7.54;100.00;100329.94;5276174;28;20073;-70
2021/12/24 08:43:00;;;;;;;33.23;18.17;;;;;;;7.56;100.00;100327.34;5276298;28;20590;-71
2021/12/24 08:45:31;;;;;;;38.47;19.73;;;;;;;7.58;100.00;100328.19;5275766;28;20024;-72
2021/12/24 08:48:03;;;;;;;33.07;19.10;;;;;;;7.59;100.00;100330.75;5275520;28;20020;-70
2021/12/24 08:50:34;;;;;;;31.87;19.50;;;;;;;7.63;100.00;100327.28;5275601;28;20503;-71
2021/12/24 08:53:07;;;;;;;35.57;20.67;;;;;;;7.69;100.00;100331.53;5274825;28;20028;-70
2021/12/24 08:55:39;;;;;;;44.03;22.17;;;;;;;7.70;100.00;100332.44;5273946;28;20819;-71
2021/12/24 08:58:11;;;;;;;34.35;20.98;;;;;;;7.74;100.00;100332.34;5275275;28;20384;-72
2021/12/24 09:00:42;;;;;;;38.83;20.50;;;;;;;7.77;100.00;100323.69;5275689;28;20029;-72
2021/12/24 09:03:13;;;;;;;47.87;23.13;;;;;;;7.79;100.00;100330.63;5276796;28;20025;-73
2021/12/24 09:05:45;;;;;;;41.63;22.30;;;;;;;7.80;100.00;100327.13;5276476;28;20036;-73
2021/12/24 09:08:17;;;;;;;37.40;23.53;;;;;;;7.84;100.00;100333.13;5276187;28;20121;-72
2021/12/24 09:10:49;;;;;;;49.47;24.10;;;;;;;7.87;100.00;100329.66;5276031;28;20097;-72
2021/12/24 09:13:20;;;;;;;46.00;24.87;;;;;;;7.89;100.00;100330.50;5276018;28;20024;-71
2021/12/24 09:15:53;;;;;;;42.93;24.57;;;;;;;7.92;100.00;100325.28;5276163;28;20017;-72
2021/12/24 09:18:25;;;;;;;46.58;24.33;;;;;;;7.93;100.00;100327.88;5276222;28;20047;-73
2021/12/24 09:21:01;;;;;;;40.97;24.87;;;;;;;7.97;100.00;100323.50;5275918;28;20029;-72
2021/12/24 09:23:32;;;;;;;43.00;24.35;;;;;;;8.01;100.00;100326.06;5275964;28;20044;-70
2021/12/24 09:26:03;;;;;;;36.03;22.73;;;;;;;7.99;100.00;100320.03;5275542;28;20054;-73
2021/12/24 09:28:35;;;;;;;47.27;26.93;;;;;;;7.98;100.00;100328.69;5275205;28;20051;-72
2021/12/24 09:31:06;;;;;;;42.07;25.70;;;;;;;8.01;100.00;100327.81;5275623;28;20036;-71
2021/12/24 09:33:38;;;;;;;42.40;23.63;;;;;;;8.00;100.00;100323.47;5275819;28;20468;-72
2021/12/24 09:36:09;;;;;;;44.67;24.40;;;;;;;8.00;100.00;100326.97;5274959;28;20180;-72
2021/12/24 09:38:41;;;;;;;45.27;27.23;;;;;;;8.01;100.00;100326.06;5276218;28;20036;-71
2021/12/24 09:41:12;;;;;;;46.30;23.63;;;;;;;8.04;100.00;100332.97;5275934;28;20108;-73
2021/12/24 09:43:43;;;;;;;47.83;23.77;;;;;;;8.08;100.00;100328.59;5276424;28;20040;-71
2021/12/24 09:46:15;;;;;;;42.80;23.40;;;;;;;8.08;100.00;100324.25;5275349;28;20029;-71
2021/12/24 09:48:47;;;;;;;41.60;25.10;;;;;;;8.06;100.00;100327.78;5275264;28;20029;-71
2021/12/24 09:51:20;;;;;;;44.63;24.37;;;;;;;8.05;100.00;100332.09;5275331;28;20134;-71
2021/12/24 09:53:54;;;;;;;47.55;25.20;;;;;;;8.07;100.00;100326.91;5273833;28;20036;-70
2021/12/24 09:56:25;;;;;;;42.95;25.35;;;;;;;8.06;100.00;100328.63;5275099;28;20475;-70
2021/12/24 09:58:57;;;;;;;44.53;25.50;;;;;;;8.08;100.00;100328.59;5275507;28;20113;-72
2021/12/24 10:01:44;;;;;;;45.43;24.30;;;;;;;8.08;100.00;100326.00;5275455;28;20111;-74
2021/12/24 10:04:18;;;;;;;47.13;26.13;;;;;;;8.06;100.00;100318.22;5275257;28;20028;-71
2021/12/24 10:07:07;;;;;;;47.97;27.02;;;;;;;8.08;100.00;100323.41;5275453;28;20131;-70
2021/12/24 10:09:47;;;;;;;52.15;29.35;;;;;;;8.08;100.00;100323.41;5279627;28;20056;-71
2021/12/24 10:12:23;;;;;;;51.67;29.77;;;;;;;8.07;100.00;100316.53;5293067;28;20070;-69
2021/12/24 10:14:58;;;;;;;48.28;29.27;;;;;;;8.08;100.00;100326.00;5293093;28;20039;-70
2021/12/24 10:17:35;;;;;;;52.63;31.40;;;;;;;8.08;100.00;100318.22;5292806;28;20384;-69
2021/12/24 10:20:18;;;;;;;53.75;29.92;;;;;;;8.10;100.00;100327.72;5293338;28;20115;-70
2021/12/24 10:22:51;;;;;;;50.70;28.17;;;;;;;8.13;100.00;100322.50;5294085;28;20032;-70
2021/12/24 10:25:24;;;;;;;47.75;29.70;;;;;;;8.16;100.00;100329.38;5294572;28;20566;-70
2021/12/24 10:27:56;;;;;;;47.97;28.73;;;;;;;8.18;100.00;100330.25;5294517;28;20128;-70
2021/12/24 10:30:31;;;;;;;51.80;29.37;;;;;;;8.20;100.00;100323.28;5293950;28;20024;-69
2021/12/24 10:33:10;;;;;;;45.45;27.92;;;;;;;8.20;100.00;100318.97;5294905;28;20278;-69
2021/12/24 10:35:42;;;;;;;46.22;29.10;;;;;;;8.20;100.00;100311.16;5294157;28;20025;-69
2021/12/24 10:38:20;;;;;;;50.77;27.60;;;;;;;8.23;100.00;100307.69;5294277;28;20032;-70
2021/12/24 10:40:54;;;;;;;48.05;26.70;;;;;;;8.27;100.00;100314.56;5293338;28;20533;-70
2021/12/24 10:43:28;;;;;;;45.38;28.20;;;;;;;8.27;100.00;100313.69;5294928;28;20036;-70
2021/12/24 10:46:15;;;;;;;53.28;29.80;;;;;;;8.34;100.00;100305.84;5294246;28;20020;-71
2021/12/24 10:49:27;;;;;;;48.53;31.38;;;;;;;8.36;100.00;100311.84;5292151;28;20020;-70
2021/12/24 10:52:14;;;;;;;60.70;33.55;;;;;;;8.43;99.96;100301.41;5257355;28;20571;-70
2021/12/24 10:55:08;;;;;;;50.85;33.72;;;;;;;8.54;99.83;100296.97;5255010;28;20117;-70
2021/12/24 10:57:42;;;;;;;61.35;33.95;;;;;;;8.59;99.56;100295.16;5254815;28;20104;-71
2021/12/24 11:00:27;;;;;;;64.78;35.53;;;;;;;8.62;99.33;100284.75;5255071;28;20037;-69
2021/12/24 11:03:15;;;;;;;59.10;38.95;;;;;;;8.62;99.13;100289.09;5235369;28;20133;-70
2021/12/24 11:05:48;;;;;;;67.18;40.50;;;;;;;8.57;99.51;100291.75;5253190;28;20083;-70
2021/12/24 11:08:25;;;;;;;60.65;40.90;;;;;;;8.51;99.74;100292.66;5254044;28;20103;-69
2021/12/24 11:11:00;;;;;;;60.70;40.78;;;;;;;8.51;99.59;100291.81;5254126;28;20036;-70
2021/12/24 11:13:43;;;;;;;64.57;39.25;;;;;;;8.58;98.81;100283.06;5254602;28;20036;-70
2021/12/24 11:16:24;;;;;;;68.97;40.25;;;;;;;8.56;98.92;100300.41;5254205;28;20041;-70
2021/12/24 11:18:59;;;;;;;64.85;43.67;;;;;;;8.59;99.09;100282.19;5254272;28;20113;-71
2021/12/24 11:21:32;;;;;;;63.22;40.75;;;;;;;8.65;98.77;100286.47;5254039;28;20071;-70
2021/12/24 11:24:04;;;;;;;;;;;;;;;8.79;98.47;100286.25;5254823;28;20033;-70
2021/12/24 11:26:48;;;;;;;75.75;43.90;;;;;;;8.73;97.89;100305.41;5253668;28;20103;-70
2021/12/24 11:29:20;;;;;;;65.75;42.05;;;;;;;8.68;97.76;100292.47;5276411;28;20848;-72
2021/12/24 11:31:51;;;;;;;74.77;45.10;;;;;;;8.66;98.66;100285.56;5277445;28;20036;-71
2021/12/24 11:34:23;;;;;;;67.87;41.67;;;;;;;8.59;98.57;100302.97;5277768;28;20551;-70
2021/12/24 11:36:54;;;;;;;66.03;43.23;;;;;;;8.59;98.97;100292.56;5277534;28;20470;-70
2021/12/24 11:39:26;;;;;;;64.43;42.83;;;;;;;8.64;98.29;100298.56;5277492;28;20102;-71
2021/12/24 11:42:00;;;;;;;63.60;43.53;;;;;;;8.58;98.57;100301.25;5277212;28;20031;-71
2021/12/24 11:44:32;;;;;;;57.20;42.47;;;;;;;8.51;98.73;100302.19;5276750;28;20032;-70
2021/12/24 11:47:04;;;;;;;66.75;40.85;;;;;;;8.53;98.94;100305.63;5277350;28;20534;-69
2021/12/24 11:49:35;;;;;;;63.43;41.53;;;;;;;8.51;98.79;100302.19;5276885;28;20043;-71
2021/12/24 11:52:07;;;;;;;62.33;40.33;;;;;;;8.47;99.17;100298.78;5276686;28;20047;-69
2021/12/24 11:54:39;;;;;;;65.72;40.40;;;;;;;8.45;99.32;100297.06;5275325;28;20016;-71
2021/12/24 11:57:20;;;;;;;68.10;41.53;;;;;;;8.44;99.54;100305.78;5276252;28;20024;-70
2021/12/24 11:59:52;;;;;;;67.60;41.30;;;;;;;8.39;99.84;100290.19;5277201;28;20024;-70
2021/12/24 12:02:46;;;;;;;61.80;41.07;;;;;;;8.40;100.00;100287.59;5276832;28;20023;-71
2021/12/24 12:05:32;;;;;;;61.40;40.53;;;;;;;8.42;100.00;100297.06;5277008;28;20718;-70
2021/12/24 12:08:27;;;;;;;71.10;51.90;;;;;;;8.38;100.00;100289.31;5276407;28;20452;-71
2021/12/24 12:11:05;;;;;;;58.28;39.47;;;;;;;8.37;100.00;100290.22;5275589;28;20089;-69
2021/12/24 12:13:36;;;;;;;65.80;40.38;;;;;;;8.39;100.00;100283.25;5277029;28;20024;-69
2021/12/24 12:16:14;;;;;;;64.47;40.80;;;;;;;8.39;100.00;100287.59;5276855;28;20051;-70
2021/12/24 12:19:03;;;;;;;58.08;37.92;;;;;;;8.43;100.00;100281.50;5275478;28;20467;-69
2021/12/24 12:21:41;;;;;;;64.43;40.38;;;;;;;8.44;100.00;100288.44;5276934;28;20028;-70
2021/12/24 12:26:50;;;;;;;54.20;36.63;;;;;;;8.48;100.00;100284.06;5277036;28;20069;-71
2021/12/24 12:29:27;;;;;;;57.17;37.85;;;;;;;8.44;100.00;100283.25;5275659;28;20116;-71
2021/12/24 12:32:06;;;;;;;56.20;36.38;;;;;;;8.40;100.00;100279.78;5276150;28;20452;-70
2021/12/24 12:34:40;;;;;;;60.50;38.42;;;;;;;8.34;100.00;100274.66;5275250;28;20396;-69
2021/12/24 12:37:22;;;;;;;58.90;36.92;;;;;;;8.25;100.00;100279.13;5276127;28;20130;-69
2021/12/24 12:39:58;;;;;;;56.22;35.22;;;;;;;8.22;100.00;100282.59;5274736;28;20119;-69
2021/12/24 12:43:09;;;;;;;72.50;38.28;;;;;;;8.24;100.00;100278.22;5276168;28;20590;-70
2021/12/24 12:45:41;;;;;;;62.00;38.88;;;;;;;8.21;100.00;100275.66;5252123;28;20075;-69
2021/12/24 12:48:22;;;;;;;62.45;37.75;;;;;;;8.20;100.00;100284.34;5252716;28;20404;-69
2021/12/24 12:50:57;;;;;;;64.57;38.78;;;;;;;8.27;100.00;100274.75;5252572;28;20029;-70
2021/12/24 12:53:31;;;;;;;57.58;37.03;;;;;;;8.29;100.00;100273.88;5252881;28;20082;-69
2021/12/24 12:56:23;;;;;;;55.50;34.65;;;;;;;8.41;100.00;100275.44;5236700;28;20044;-70
2021/12/24 12:59:06;;;;;;;46.83;32.08;;;;;;;8.52;100.00;100271.00;5252446;28;20392;-71
2021/12/24 13:01:52;;;;;;;53.38;32.30;;;;;;;8.55;100.00;100277.91;5235802;28;20041;-69
2021/12/24 13:04:23;;;;;;;52.83;31.90;;;;;;;8.53;100.00;100264.94;5251766;28;20109;-72
2021/12/24 13:06:57;;;;;;;52.80;32.07;;;;;;;8.68;100.00;100268.22;5247460;28;20840;-72
2021/12/24 13:09:34;;;;;;;50.35;31.88;;;;;;;8.70;100.00;100256.91;5250868;28;20041;-70
2021/12/24 13:12:05;;;;;;;52.17;30.17;;;;;;;8.73;99.11;100262.06;5250820;28;20036;-70
2021/12/24 13:14:37;;;;;;;50.33;31.93;;;;;;;8.79;99.20;100273.25;5251089;28;20055;-70
2021/12/24 13:22:34;;;;;;;44.30;26.58;;;;;;;8.80;97.63;100262.84;5255542;28;20044;-72
2021/12/24 13:25:14;;;;;;;38.97;26.02;;;;;;;8.81;97.91;100263.72;5255052;28;20036;-71